sensor_id;sensor_type;location;lat;lon;timestamp;temperature;humidity
15638;DHT22;26604;53.596;10.042;2023-11-21T05:35:27;7.00;99.90
15638;DHT22;26604;53.596;10.042;2023-11-21T05:37:53;6.90;99.90
15638;DHT22;26604;53.596;10.042;2023-11-21T05:40:20;6.90;99.90
15638;DHT22;26604;53.596;10.042;2023-11-21T05:42:48;6.90;99.90
15638;DHT22;26604;53.596;10.042;2023-11-21T05:45:14;6.90;1.00
15638;DHT22;26604;53.596;10.042;2023-11-21T05:47:43;7.00;1.00
15638;DHT22;26604;53.596;10.042;2023-11-21T05:50:13;7.00;1.00
15638;DHT22;26604;53.596;10.042;2023-11-21T05:52:42;7.00;1.00
15638;DHT22;26604;53.596;10.042;2023-11-21T05:55:09;7.00;1.00
15638;DHT22;26604;53.596;10.042;2023-11-21T05:57:37;7.00;1.00
15638;DHT22;26604;53.596;10.042;2023-11-21T06:00:06;7.00;1.00
15638;DHT22;26604;53.596;10.042;2023-11-21T06:02:37;7.00;99.90
15638;DHT22;26604;53.596;10.042;2023-11-21T06:05:05;7.00;1.00
15638;DHT22;26604;53.596;10.042;2023-11-21T06:07:32;7.00;1.00
15638;DHT22;26604;53.596;10.042;2023-11-21T06:10:02;7.00;1.00
15638;DHT22;26604;53.596;10.042;2023-11-21T06:12:32;7.00;99.90
15638;DHT22;26604;53.596;10.042;2023-11-21T06:15:01;7.00;1.00
15638;DHT22;26604;53.596;10.042;2023-11-21T06:17:30;7.00;1.00
15638;DHT22;26604;53.596;10.042;2023-11-21T06:19:57;7.00;1.00
15638;DHT22;26604;53.596;10.042;2023-11-21T06:22:24;7.00;7.70
15638;DHT22;26604;53.596;10.042;2023-11-21T06:24:51;7.00;1.00
15638;DHT22;26604;53.596;10.042;2023-11-21T06:27:19;7.00;99.90
15638;DHT22;26604;53.596;10.042;2023-11-21T06:29:46;7.00;99.90
15638;DHT22;26604;53.596;10.042;2023-11-21T06:32:13;7.00;1.00
15638;DHT22;26604;53.596;10.042;2023-11-21T06:34:41;7.00;1.00
15638;DHT22;26604;53.596;10.042;2023-11-21T06:37:08;7.00;1.00
15638;DHT22;26604;53.596;10.042;2023-11-21T06:39:36;7.00;99.90
15638;DHT22;26604;53.596;10.042;2023-11-21T06:42:03;7.00;1.00
15638;DHT22;26604;53.596;10.042;2023-11-21T06:44:32;7.00;1.00
15638;DHT22;26604;53.596;10.042;2023-11-21T06:47:00;7.00;99.90
15638;DHT22;26604;53.596;10.042;2023-11-21T06:49:28;7.00;1.00
15638;DHT22;26604;53.596;10.042;2023-11-21T06:51:55;7.00;1.00
15638;DHT22;26604;53.596;10.042;2023-11-21T06:54:22;7.00;1.00
15638;DHT22;26604;53.596;10.042;2023-11-21T06:56:48;7.00;1.00
15638;DHT22;26604;53.596;10.042;2023-11-21T06:59:15;7.00;1.00
15638;DHT22;26604;53.596;10.042;2023-11-21T07:01:43;7.10;99.90
15638;DHT22;26604;53.596;10.042;2023-11-21T07:04:10;7.10;1.00
15638;DHT22;26604;53.596;10.042;2023-11-21T07:06:37;7.10;1.00
15638;DHT22;26604;53.596;10.042;2023-11-21T07:09:04;7.10;99.90
15638;DHT22;26604;53.596;10.042;2023-11-21T07:11:31;7.10;99.90
15638;DHT22;26604;53.596;10.042;2023-11-21T07:13:58;7.10;99.90
15638;DHT22;26604;53.596;10.042;2023-11-21T07:16:25;7.00;1.00
15638;DHT22;26604;53.596;10.042;2023-11-21T07:18:53;7.00;1.00
15638;DHT22;26604;53.596;10.042;2023-11-21T07:21:21;7.10;1.00
15638;DHT22;26604;53.596;10.042;2023-11-21T07:23:48;7.10;1.00
15638;DHT22;26604;53.596;10.042;2023-11-21T07:26:15;7.10;1.00
15638;DHT22;26604;53.596;10.042;2023-11-21T07:28:42;7.10;1.00
15638;DHT22;26604;53.596;10.042;2023-11-21T07:31:08;7.10;1.00
15638;DHT22;26604;53.596;10.042;2023-11-21T07:33:35;7.20;99.90
15638;DHT22;26604;53.596;10.042;2023-11-21T07:36:06;7.20;1.00
15638;DHT22;26604;53.596;10.042;2023-11-21T07:38:33;7.20;99.90
15638;DHT22;26604;53.596;10.042;2023-11-21T07:41:00;7.20;99.90
15638;DHT22;26604;53.596;10.042;2023-11-21T07:43:28;7.20;99.90
15638;DHT22;26604;53.596;10.042;2023-11-21T07:46:00;7.20;99.90
15638;DHT22;26604;53.596;10.042;2023-11-21T07:48:28;7.30;99.90
15638;DHT22;26604;53.596;10.042;2023-11-21T07:50:55;7.30;1.00
15638;DHT22;26604;53.596;10.042;2023-11-21T07:53:23;7.30;99.90
15638;DHT22;26604;53.596;10.042;2023-11-21T07:55:50;7.30;99.90
15638;DHT22;26604;53.596;10.042;2023-11-21T07:58:17;7.40;99.90
15638;DHT22;26604;53.596;10.042;2023-11-21T08:00:44;7.40;1.00
15638;DHT22;26604;53.596;10.042;2023-11-21T08:03:13;7.40;99.90
15638;DHT22;26604;53.596;10.042;2023-11-21T08:05:39;7.30;99.90
15638;DHT22;26604;53.596;10.042;2023-11-21T08:08:06;7.30;1.00
15638;DHT22;26604;53.596;10.042;2023-11-21T08:10:34;7.40;1.00
15638;DHT22;26604;53.596;10.042;2023-11-21T08:13:02;7.40;99.90
15638;DHT22;26604;53.596;10.042;2023-11-21T08:15:29;7.50;1.00
15638;DHT22;26604;53.596;10.042;2023-11-21T08:17:57;7.50;99.90
15638;DHT22;26604;53.596;10.042;2023-11-21T08:20:24;7.50;1.00
15638;DHT22;26604;53.596;10.042;2023-11-21T08:22:51;7.60;99.90
15638;DHT22;26604;53.596;10.042;2023-11-21T08:25:18;7.60;99.90
15638;DHT22;26604;53.596;10.042;2023-11-21T08:27:47;7.70;99.90
15638;DHT22;26604;53.596;10.042;2023-11-21T08:30:14;7.80;99.90
15638;DHT22;26604;53.596;10.042;2023-11-21T08:32:42;7.80;1.00
15638;DHT22;26604;53.596;10.042;2023-11-21T08:35:10;7.80;1.00
15638;DHT22;26604;53.596;10.042;2023-11-21T08:37:37;7.80;1.00
15638;DHT22;26604;53.596;10.042;2023-11-21T08:40:05;7.70;1.00
15638;DHT22;26604;53.596;10.042;2023-11-21T08:42:34;7.80;89.40
15638;DHT22;26604;53.596;10.042;2023-11-21T08:45:03;7.80;37.20
15638;DHT22;26604;53.596;10.042;2023-11-21T08:47:34;7.80;1.00
15638;DHT22;26604;53.596;10.042;2023-11-21T08:50:02;7.80;1.00
15638;DHT22;26604;53.596;10.042;2023-11-21T08:52:29;7.80;1.00
15638;DHT22;26604;53.596;10.042;2023-11-21T08:54:56;7.80;1.00
15638;DHT22;26604;53.596;10.042;2023-11-21T08:57:23;7.70;1.00
15638;DHT22;26604;53.596;10.042;2023-11-21T08:59:50;7.70;1.00
15638;DHT22;26604;53.596;10.042;2023-11-21T09:02:22;7.70;99.90
15638;DHT22;26604;53.596;10.042;2023-11-21T09:04:49;7.70;1.00
15638;DHT22;26604;53.596;10.042;2023-11-21T09:07:18;7.70;1.00
15638;DHT22;26604;53.596;10.042;2023-11-21T09:09:46;7.60;99.90
15638;DHT22;26604;53.596;10.042;2023-11-21T09:12:13;7.60;1.00
15638;DHT22;26604;53.596;10.042;2023-11-21T09:14:40;7.60;99.90
15638;DHT22;26604;53.596;10.042;2023-11-21T09:17:07;7.70;13.80
15638;DHT22;26604;53.596;10.042;2023-11-21T09:19:37;7.70;99.90
15638;DHT22;26604;53.596;10.042;2023-11-21T09:22:04;7.70;94.20
15638;DHT22;26604;53.596;10.042;2023-11-21T09:24:31;7.70;99.90
15638;DHT22;26604;53.596;10.042;2023-11-21T09:26:59;7.80;99.90
15638;DHT22;26604;53.596;10.042;2023-11-21T09:29:26;7.80;99.90
15638;DHT22;26604;53.596;10.042;2023-11-21T09:31:54;7.80;99.90
15638;DHT22;26604;53.596;10.042;2023-11-21T09:34:24;7.80;69.40
15638;DHT22;26604;53.596;10.042;2023-11-21T09:36:53;7.80;99.90
15638;DHT22;26604;53.596;10.042;2023-11-21T09:39:20;7.70;99.90
15638;DHT22;26604;53.596;10.042;2023-11-21T09:41:52;7.70;99.90
15638;DHT22;26604;53.596;10.042;2023-11-21T09:44:28;7.70;99.90
15638;DHT22;26604;53.596;10.042;2023-11-21T09:46:59;7.80;99.90
15638;DHT22;26604;53.596;10.042;2023-11-21T09:49:26;7.80;1.00
15638;DHT22;26604;53.596;10.042;2023-11-21T09:51:56;7.80;1.00
15638;DHT22;26604;53.596;10.042;2023-11-21T09:54:23;7.90;99.90
15638;DHT22;26604;53.596;10.042;2023-11-21T09:56:50;7.90;99.90
15638;DHT22;26604;53.596;10.042;2023-11-21T09:59:17;8.00;99.90
15638;DHT22;26604;53.596;10.042;2023-11-21T10:01:44;8.00;99.90
15638;DHT22;26604;53.596;10.042;2023-11-21T10:04:12;8.00;99.90
15638;DHT22;26604;53.596;10.042;2023-11-21T10:06:39;8.10;99.90
15638;DHT22;26604;53.596;10.042;2023-11-21T10:09:09;8.10;99.90
15638;DHT22;26604;53.596;10.042;2023-11-21T10:11:40;8.20;99.90
15638;DHT22;26604;53.596;10.042;2023-11-21T10:14:08;8.30;99.90
15638;DHT22;26604;53.596;10.042;2023-11-21T10:16:41;8.30;19.40
15638;DHT22;26604;53.596;10.042;2023-11-21T10:19:10;8.40;1.00
15638;DHT22;26604;53.596;10.042;2023-11-21T10:21:41;8.40;62.40
15638;DHT22;26604;53.596;10.042;2023-11-21T10:24:09;8.50;1.00
15638;DHT22;26604;53.596;10.042;2023-11-21T10:26:38;8.50;1.00
15638;DHT22;26604;53.596;10.042;2023-11-21T10:29:05;8.60;1.00
15638;DHT22;26604;53.596;10.042;2023-11-21T10:31:33;8.70;1.00
15638;DHT22;26604;53.596;10.042;2023-11-21T10:34:15;8.70;1.00
15638;DHT22;26604;53.596;10.042;2023-11-21T10:36:43;8.70;99.90
15638;DHT22;26604;53.596;10.042;2023-11-21T10:39:14;8.60;1.00
15638;DHT22;26604;53.596;10.042;2023-11-21T10:41:44;8.70;1.00
15638;DHT22;26604;53.596;10.042;2023-11-21T10:44:11;8.70;1.00
15638;DHT22;26604;53.596;10.042;2023-11-21T10:46:40;8.70;1.00
15638;DHT22;26604;53.596;10.042;2023-11-21T10:49:08;8.70;1.00
15638;DHT22;26604;53.596;10.042;2023-11-21T10:51:35;8.60;99.90
15638;DHT22;26604;53.596;10.042;2023-11-21T10:54:02;8.60;99.90
15638;DHT22;26604;53.596;10.042;2023-11-21T10:56:30;8.50;1.00
15638;DHT22;26604;53.596;10.042;2023-11-21T10:59:01;8.50;1.00
15638;DHT22;26604;53.596;10.042;2023-11-21T11:01:28;8.40;1.00
15638;DHT22;26604;53.596;10.042;2023-11-21T11:03:57;8.40;99.90
15638;DHT22;26604;53.596;10.042;2023-11-21T11:06:26;8.30;1.00
15638;DHT22;26604;53.596;10.042;2023-11-21T11:08:54;8.30;1.00
15638;DHT22;26604;53.596;10.042;2023-11-21T11:11:21;8.30;1.00
15638;DHT22;26604;53.596;10.042;2023-11-21T11:13:50;8.20;1.00
15638;DHT22;26604;53.596;10.042;2023-11-21T11:16:17;8.20;1.00
15638;DHT22;26604;53.596;10.042;2023-11-21T11:18:45;8.20;1.00
15638;DHT22;26604;53.596;10.042;2023-11-21T11:21:23;8.30;1.00
15638;DHT22;26604;53.596;10.042;2023-11-21T11:24:03;8.30;99.90
15638;DHT22;26604;53.596;10.042;2023-11-21T11:26:39;8.20;1.00
15638;DHT22;26604;53.596;10.042;2023-11-21T11:29:17;8.20;99.90
15638;DHT22;26604;53.596;10.042;2023-11-21T11:32:04;8.20;99.90
15638;DHT22;26604;53.596;10.042;2023-11-21T11:34:36;8.30;1.00
15638;DHT22;26604;53.596;10.042;2023-11-21T11:37:07;8.40;99.90
15638;DHT22;26604;53.596;10.042;2023-11-21T11:39:36;8.50;99.90
15638;DHT22;26604;53.596;10.042;2023-11-21T11:42:06;8.50;75.70
15638;DHT22;26604;53.596;10.042;2023-11-21T11:44:51;8.40;99.90
15638;DHT22;26604;53.596;10.042;2023-11-21T11:47:24;8.40;99.90
15638;DHT22;26604;53.596;10.042;2023-11-21T11:50:06;8.30;37.80
15638;DHT22;26604;53.596;10.042;2023-11-21T11:52:40;8.30;99.90
15638;DHT22;26604;53.596;10.042;2023-11-21T11:55:09;8.30;9.50
15638;DHT22;26604;53.596;10.042;2023-11-21T11:57:41;8.30;1.00
15638;DHT22;26604;53.596;10.042;2023-11-21T12:00:14;8.30;1.00
15638;DHT22;26604;53.596;10.042;2023-11-21T12:02:47;8.30;1.00
15638;DHT22;26604;53.596;10.042;2023-11-21T12:05:15;8.20;1.00
15638;DHT22;26604;53.596;10.042;2023-11-21T12:07:48;8.30;1.00
15638;DHT22;26604;53.596;10.042;2023-11-21T12:10:16;8.30;99.90
15638;DHT22;26604;53.596;10.042;2023-11-21T12:12:45;8.20;27.00
15638;DHT22;26604;53.596;10.042;2023-11-21T12:15:13;8.20;1.00
15638;DHT22;26604;53.596;10.042;2023-11-21T12:17:42;8.20;99.90
15638;DHT22;26604;53.596;10.042;2023-11-21T12:20:10;8.00;99.90
15638;DHT22;26604;53.596;10.042;2023-11-21T12:22:47;8.00;99.90
15638;DHT22;26604;53.596;10.042;2023-11-21T12:25:15;7.90;99.90
15638;DHT22;26604;53.596;10.042;2023-11-21T12:27:44;7.80;99.90
15638;DHT22;26604;53.596;10.042;2023-11-21T12:30:13;7.70;99.90
15638;DHT22;26604;53.596;10.042;2023-11-21T12:32:42;7.70;99.90
15638;DHT22;26604;53.596;10.042;2023-11-21T12:35:09;7.60;1.00
15638;DHT22;26604;53.596;10.042;2023-11-21T12:37:37;7.60;99.90
15638;DHT22;26604;53.596;10.042;2023-11-21T12:40:06;7.60;99.90
15638;DHT22;26604;53.596;10.042;2023-11-21T12:42:37;7.60;1.00
15638;DHT22;26604;53.596;10.042;2023-11-21T12:45:08;7.60;99.90
15638;DHT22;26604;53.596;10.042;2023-11-21T12:47:41;7.60;99.90
15638;DHT22;26604;53.596;10.042;2023-11-21T12:50:09;7.60;99.90
15638;DHT22;26604;53.596;10.042;2023-11-21T12:52:44;7.60;1.00
15638;DHT22;26604;53.596;10.042;2023-11-21T12:55:15;7.60;1.00
15638;DHT22;26604;53.596;10.042;2023-11-21T12:57:43;7.50;1.00
15638;DHT22;26604;53.596;10.042;2023-11-21T13:00:12;7.40;1.00
15638;DHT22;26604;53.596;10.042;2023-11-21T13:02:55;7.40;1.00
15638;DHT22;26604;53.596;10.042;2023-11-21T13:05:25;7.40;84.70
15638;DHT22;26604;53.596;10.042;2023-11-21T13:07:52;7.40;1.00
15638;DHT22;26604;53.596;10.042;2023-11-21T13:10:21;7.30;99.90
15638;DHT22;26604;53.596;10.042;2023-11-21T13:12:51;7.40;99.90
15638;DHT22;26604;53.596;10.042;2023-11-21T13:15:20;7.40;1.00
15638;DHT22;26604;53.596;10.042;2023-11-21T13:17:47;7.40;1.00
15638;DHT22;26604;53.596;10.042;2023-11-21T13:20:17;7.40;99.90
15638;DHT22;26604;53.596;10.042;2023-11-21T13:22:49;7.40;1.00
15638;DHT22;26604;53.596;10.042;2023-11-21T13:25:19;7.30;1.00
15638;DHT22;26604;53.596;10.042;2023-11-21T13:27:46;7.20;1.00
15638;DHT22;26604;53.596;10.042;2023-11-21T13:30:14;7.20;99.90
15638;DHT22;26604;53.596;10.042;2023-11-21T13:32:48;7.20;1.00
15638;DHT22;26604;53.596;10.042;2023-11-21T13:35:18;7.20;11.00
15638;DHT22;26604;53.596;10.042;2023-11-21T13:37:57;7.10;99.90
15638;DHT22;26604;53.596;10.042;2023-11-21T13:40:26;7.10;99.90
15638;DHT22;26604;53.596;10.042;2023-11-21T13:42:53;7.10;1.00
15638;DHT22;26604;53.596;10.042;2023-11-21T13:45:21;7.00;99.90
15638;DHT22;26604;53.596;10.042;2023-11-21T13:47:49;7.10;1.00
15638;DHT22;26604;53.596;10.042;2023-11-21T13:50:19;7.10;1.00
15638;DHT22;26604;53.596;10.042;2023-11-21T13:52:51;7.10;99.90
15638;DHT22;26604;53.596;10.042;2023-11-21T13:55:19;7.00;7.60
15638;DHT22;26604;53.596;10.042;2023-11-21T13:57:49;7.00;99.90
15638;DHT22;26604;53.596;10.042;2023-11-21T14:00:17;7.00;57.90
15638;DHT22;26604;53.596;10.042;2023-11-21T14:03:07;7.00;1.00
15638;DHT22;26604;53.596;10.042;2023-11-21T14:05:44;7.00;25.20
15638;DHT22;26604;53.596;10.042;2023-11-21T14:08:13;6.90;1.00
15638;DHT22;26604;53.596;10.042;2023-11-21T14:10:42;6.90;9.30
15638;DHT22;26604;53.596;10.042;2023-11-21T14:13:10;6.90;99.90
15638;DHT22;26604;53.596;10.042;2023-11-21T14:15:39;6.90;1.00
15638;DHT22;26604;53.596;10.042;2023-11-21T14:18:08;6.90;1.00
15638;DHT22;26604;53.596;10.042;2023-11-21T14:20:36;6.90;1.00
15638;DHT22;26604;53.596;10.042;2023-11-21T14:23:05;6.90;1.00
15638;DHT22;26604;53.596;10.042;2023-11-21T14:25:32;6.80;99.90
15638;DHT22;26604;53.596;10.042;2023-11-21T14:28:00;6.80;99.90
15638;DHT22;26604;53.596;10.042;2023-11-21T14:30:29;6.80;99.90
15638;DHT22;26604;53.596;10.042;2023-11-21T14:32:57;6.70;1.00
15638;DHT22;26604;53.596;10.042;2023-11-21T14:35:24;6.70;34.80
15638;DHT22;26604;53.596;10.042;2023-11-21T14:37:52;6.70;1.00
15638;DHT22;26604;53.596;10.042;2023-11-21T14:40:20;6.70;27.80
15638;DHT22;26604;53.596;10.042;2023-11-21T14:42:50;6.60;99.90
15638;DHT22;26604;53.596;10.042;2023-11-21T14:45:18;6.60;99.90
15638;DHT22;26604;53.596;10.042;2023-11-21T14:47:46;6.60;99.90
15638;DHT22;26604;53.596;10.042;2023-11-21T14:50:21;6.60;8.00
15638;DHT22;26604;53.596;10.042;2023-11-21T14:53:10;6.50;1.00
15638;DHT22;26604;53.596;10.042;2023-11-21T14:55:39;6.50;1.00
15638;DHT22;26604;53.596;10.042;2023-11-21T14:58:20;6.60;99.90
15638;DHT22;26604;53.596;10.042;2023-11-21T15:00:53;6.60;99.90
15638;DHT22;26604;53.596;10.042;2023-11-21T15:03:24;6.60;99.90
15638;DHT22;26604;53.596;10.042;2023-11-21T15:06:08;6.60;1.00
15638;DHT22;26604;53.596;10.042;2023-11-21T15:08:57;6.50;1.00
15638;DHT22;26604;53.596;10.042;2023-11-21T15:11:39;6.50;1.00
15638;DHT22;26604;53.596;10.042;2023-11-21T15:14:07;6.40;1.00
15638;DHT22;26604;53.596;10.042;2023-11-21T15:16:35;6.30;1.00
15638;DHT22;26604;53.596;10.042;2023-11-21T15:19:05;6.30;10.50
15638;DHT22;26604;53.596;10.042;2023-11-21T15:21:32;6.30;99.90
15638;DHT22;26604;53.596;10.042;2023-11-21T15:23:59;6.20;7.70
15638;DHT22;26604;53.596;10.042;2023-11-21T15:26:26;6.10;78.60
15638;DHT22;26604;53.596;10.042;2023-11-21T15:28:55;6.00;99.90
15638;DHT22;26604;53.596;10.042;2023-11-21T15:31:22;6.00;1.00
15638;DHT22;26604;53.596;10.042;2023-11-21T15:33:50;5.90;99.90
15638;DHT22;26604;53.596;10.042;2023-11-21T15:36:17;5.90;1.00
15638;DHT22;26604;53.596;10.042;2023-11-21T15:38:45;5.90;99.90
15638;DHT22;26604;53.596;10.042;2023-11-21T15:41:11;5.90;99.90
15638;DHT22;26604;53.596;10.042;2023-11-21T15:43:38;5.80;1.00
15638;DHT22;26604;53.596;10.042;2023-11-21T15:46:07;5.80;1.00
15638;DHT22;26604;53.596;10.042;2023-11-21T15:48:34;5.70;1.00
15638;DHT22;26604;53.596;10.042;2023-11-21T15:51:01;5.70;1.00
15638;DHT22;26604;53.596;10.042;2023-11-21T15:53:30;5.70;1.00
15638;DHT22;26604;53.596;10.042;2023-11-21T15:55:57;5.80;1.00
15638;DHT22;26604;53.596;10.042;2023-11-21T15:58:24;5.70;99.90
15638;DHT22;26604;53.596;10.042;2023-11-21T16:00:51;5.70;1.00
15638;DHT22;26604;53.596;10.042;2023-11-21T16:03:19;5.70;1.00
15638;DHT22;26604;53.596;10.042;2023-11-21T16:05:47;5.70;1.00
15638;DHT22;26604;53.596;10.042;2023-11-21T16:08:14;5.70;1.00
15638;DHT22;26604;53.596;10.042;2023-11-21T16:10:43;5.80;1.00
15638;DHT22;26604;53.596;10.042;2023-11-21T16:13:10;5.70;1.00
15638;DHT22;26604;53.596;10.042;2023-11-21T16:15:38;5.70;1.00
15638;DHT22;26604;53.596;10.042;2023-11-21T16:18:05;5.70;1.00
15638;DHT22;26604;53.596;10.042;2023-11-21T16:20:34;5.70;1.00
15638;DHT22;26604;53.596;10.042;2023-11-21T16:23:00;5.70;1.00
15638;DHT22;26604;53.596;10.042;2023-11-21T16:25:27;5.60;1.00
15638;DHT22;26604;53.596;10.042;2023-11-21T16:27:54;5.60;99.90
15638;DHT22;26604;53.596;10.042;2023-11-21T16:30:23;5.60;1.00
15638;DHT22;26604;53.596;10.042;2023-11-21T16:32:52;5.60;1.00
15638;DHT22;26604;53.596;10.042;2023-11-21T16:35:20;5.60;99.90
15638;DHT22;26604;53.596;10.042;2023-11-21T16:37:48;5.50;1.00
15638;DHT22;26604;53.596;10.042;2023-11-21T16:40:15;5.40;99.90
15638;DHT22;26604;53.596;10.042;2023-11-21T16:42:41;5.20;1.00
15638;DHT22;26604;53.596;10.042;2023-11-21T16:45:10;5.10;1.00
15638;DHT22;26604;53.596;10.042;2023-11-21T16:47:38;5.00;99.90
15638;DHT22;26604;53.596;10.042;2023-11-21T16:50:09;4.90;1.00
15638;DHT22;26604;53.596;10.042;2023-11-21T16:52:35;5.00;1.00
15638;DHT22;26604;53.596;10.042;2023-11-21T16:55:05;5.00;99.90
15638;DHT22;26604;53.596;10.042;2023-11-21T16:57:35;5.00;59.40
15638;DHT22;26604;53.596;10.042;2023-11-21T17:00:05;5.00;34.00
15638;DHT22;26604;53.596;10.042;2023-11-21T17:02:33;4.90;99.90
15638;DHT22;26604;53.596;10.042;2023-11-21T17:04:59;4.80;1.00
15638;DHT22;26604;53.596;10.042;2023-11-21T17:07:27;4.90;99.90
15638;DHT22;26604;53.596;10.042;2023-11-21T17:09:54;4.90;1.00
15638;DHT22;26604;53.596;10.042;2023-11-21T17:12:23;5.10;99.90
15638;DHT22;26604;53.596;10.042;2023-11-21T17:14:51;5.20;99.90
15638;DHT22;26604;53.596;10.042;2023-11-21T17:17:19;5.30;73.40
15638;DHT22;26604;53.596;10.042;2023-11-21T17:19:46;5.30;99.90
15638;DHT22;26604;53.596;10.042;2023-11-21T17:22:13;5.30;99.90
15638;DHT22;26604;53.596;10.042;2023-11-21T17:24:41;5.30;1.00
15638;DHT22;26604;53.596;10.042;2023-11-21T17:27:09;5.20;1.00
15638;DHT22;26604;53.596;10.042;2023-11-21T17:29:38;5.20;1.00
15638;DHT22;26604;53.596;10.042;2023-11-21T17:32:05;5.10;22.20
15638;DHT22;26604;53.596;10.042;2023-11-21T17:34:32;5.00;1.00
15638;DHT22;26604;53.596;10.042;2023-11-21T17:36:59;5.00;99.90
15638;DHT22;26604;53.596;10.042;2023-11-21T17:39:28;4.90;26.60
15638;DHT22;26604;53.596;10.042;2023-11-21T17:41:55;4.80;1.00
15638;DHT22;26604;53.596;10.042;2023-11-21T17:44:21;4.90;1.00
15638;DHT22;26604;53.596;10.042;2023-11-21T17:46:50;4.90;1.00
15638;DHT22;26604;53.596;10.042;2023-11-21T17:49:17;4.90;1.00
15638;DHT22;26604;53.596;10.042;2023-11-21T17:51:44;4.90;1.00
15638;DHT22;26604;53.596;10.042;2023-11-21T17:54:10;4.90;1.00
15638;DHT22;26604;53.596;10.042;2023-11-21T17:56:37;4.90;1.00
15638;DHT22;26604;53.596;10.042;2023-11-21T17:59:04;4.90;38.10
15638;DHT22;26604;53.596;10.042;2023-11-21T18:01:36;5.00;1.00
15638;DHT22;26604;53.596;10.042;2023-11-21T18:04:04;5.00;1.00
15638;DHT22;26604;53.596;10.042;2023-11-21T18:06:32;5.00;99.90
15638;DHT22;26604;53.596;10.042;2023-11-21T18:08:59;5.00;1.00
15638;DHT22;26604;53.596;10.042;2023-11-21T18:11:29;5.00;1.00
15638;DHT22;26604;53.596;10.042;2023-11-21T18:13:56;4.90;82.00
15638;DHT22;26604;53.596;10.042;2023-11-21T18:16:23;5.00;1.00
15638;DHT22;26604;53.596;10.042;2023-11-21T18:18:50;5.10;1.00
15638;DHT22;26604;53.596;10.042;2023-11-21T18:21:18;5.10;1.00
15638;DHT22;26604;53.596;10.042;2023-11-21T18:23:45;5.10;57.30
15638;DHT22;26604;53.596;10.042;2023-11-21T18:26:16;5.10;99.90
15638;DHT22;26604;53.596;10.042;2023-11-21T18:28:43;5.10;1.00
15638;DHT22;26604;53.596;10.042;2023-11-21T18:31:10;5.10;1.00
15638;DHT22;26604;53.596;10.042;2023-11-21T18:33:36;5.10;99.90
15638;DHT22;26604;53.596;10.042;2023-11-21T18:36:06;5.00;99.90
15638;DHT22;26604;53.596;10.042;2023-11-21T18:38:35;5.00;1.00
15638;DHT22;26604;53.596;10.042;2023-11-21T18:41:02;4.90;1.00
15638;DHT22;26604;53.596;10.042;2023-11-21T18:43:29;4.90;1.00
15638;DHT22;26604;53.596;10.042;2023-11-21T18:45:56;4.80;1.00
15638;DHT22;26604;53.596;10.042;2023-11-21T18:48:22;4.90;1.00
15638;DHT22;26604;53.596;10.042;2023-11-21T18:50:50;4.90;1.00
15638;DHT22;26604;53.596;10.042;2023-11-21T18:53:20;4.90;1.00
15638;DHT22;26604;53.596;10.042;2023-11-21T18:55:48;4.90;99.90
15638;DHT22;26604;53.596;10.042;2023-11-21T18:58:15;4.90;61.60
15638;DHT22;26604;53.596;10.042;2023-11-21T19:00:42;4.90;53.20
15638;DHT22;26604;53.596;10.042;2023-11-21T19:03:09;4.90;99.90
15638;DHT22;26604;53.596;10.042;2023-11-21T19:05:36;4.90;1.00
15638;DHT22;26604;53.596;10.042;2023-11-21T19:08:03;4.80;1.00
15638;DHT22;26604;53.596;10.042;2023-11-21T19:10:31;4.80;99.90
15638;DHT22;26604;53.596;10.042;2023-11-21T19:13:00;4.90;1.00
15638;DHT22;26604;53.596;10.042;2023-11-21T19:15:29;4.90;99.90
15638;DHT22;26604;53.596;10.042;2023-11-21T19:17:55;4.80;1.00
15638;DHT22;26604;53.596;10.042;2023-11-21T19:20:23;4.90;1.00
15638;DHT22;26604;53.596;10.042;2023-11-21T19:22:50;4.90;1.00
15638;DHT22;26604;53.596;10.042;2023-11-21T19:25:17;4.90;99.90
15638;DHT22;26604;53.596;10.042;2023-11-21T19:27:45;4.90;1.00
15638;DHT22;26604;53.596;10.042;2023-11-21T19:30:15;4.80;1.00
15638;DHT22;26604;53.596;10.042;2023-11-21T19:32:41;4.80;31.80
15638;DHT22;26604;53.596;10.042;2023-11-21T19:35:10;4.80;1.00
15638;DHT22;26604;53.596;10.042;2023-11-21T19:37:37;4.80;1.00
15638;DHT22;26604;53.596;10.042;2023-11-21T19:40:06;4.70;1.00
15638;DHT22;26604;53.596;10.042;2023-11-21T19:42:32;4.80;99.90
15638;DHT22;26604;53.596;10.042;2023-11-21T19:45:02;4.80;1.00
15638;DHT22;26604;53.596;10.042;2023-11-21T19:47:30;4.80;1.00
15638;DHT22;26604;53.596;10.042;2023-11-21T19:50:01;4.70;99.90
15638;DHT22;26604;53.596;10.042;2023-11-21T19:52:29;4.70;99.90
15638;DHT22;26604;53.596;10.042;2023-11-21T19:54:56;4.70;99.90
15638;DHT22;26604;53.596;10.042;2023-11-21T19:57:22;4.70;1.00
15638;DHT22;26604;53.596;10.042;2023-11-21T19:59:49;4.70;99.90
15638;DHT22;26604;53.596;10.042;2023-11-21T20:02:16;4.60;99.90
15638;DHT22;26604;53.596;10.042;2023-11-21T20:04:44;4.70;99.90
15638;DHT22;26604;53.596;10.042;2023-11-21T20:07:11;4.70;1.00
15638;DHT22;26604;53.596;10.042;2023-11-21T20:09:40;4.60;57.90
15638;DHT22;26604;53.596;10.042;2023-11-21T20:12:08;4.70;99.90
15638;DHT22;26604;53.596;10.042;2023-11-21T20:14:34;4.70;1.00
15638;DHT22;26604;53.596;10.042;2023-11-21T20:17:01;4.70;1.00
15638;DHT22;26604;53.596;10.042;2023-11-21T20:19:28;4.70;1.00
15638;DHT22;26604;53.596;10.042;2023-11-21T20:21:57;4.70;99.90
15638;DHT22;26604;53.596;10.042;2023-11-21T20:24:24;4.70;1.00
15638;DHT22;26604;53.596;10.042;2023-11-21T20:26:52;4.80;99.90
15638;DHT22;26604;53.596;10.042;2023-11-21T20:29:18;4.80;99.90
15638;DHT22;26604;53.596;10.042;2023-11-21T20:31:45;4.80;28.00
15638;DHT22;26604;53.596;10.042;2023-11-21T20:34:12;4.80;23.50
15638;DHT22;26604;53.596;10.042;2023-11-21T20:36:39;4.80;1.00
15638;DHT22;26604;53.596;10.042;2023-11-21T20:39:08;4.80;1.00
15638;DHT22;26604;53.596;10.042;2023-11-21T20:41:36;4.80;1.00
15638;DHT22;26604;53.596;10.042;2023-11-21T20:44:06;4.70;1.00
15638;DHT22;26604;53.596;10.042;2023-11-21T20:46:38;4.60;1.00
15638;DHT22;26604;53.596;10.042;2023-11-21T20:49:06;4.50;1.00
15638;DHT22;26604;53.596;10.042;2023-11-21T20:51:33;4.50;1.00
15638;DHT22;26604;53.596;10.042;2023-11-21T20:54:00;4.40;1.00
15638;DHT22;26604;53.596;10.042;2023-11-21T20:56:28;4.40;1.00
15638;DHT22;26604;53.596;10.042;2023-11-21T20:58:56;4.40;1.00
15638;DHT22;26604;53.596;10.042;2023-11-21T21:01:26;4.40;1.00
15638;DHT22;26604;53.596;10.042;2023-11-21T21:03:54;4.40;1.00
15638;DHT22;26604;53.596;10.042;2023-11-21T21:06:21;4.40;1.00
15638;DHT22;26604;53.596;10.042;2023-11-21T21:08:48;4.30;1.00
15638;DHT22;26604;53.596;10.042;2023-11-21T21:11:17;4.30;1.00
15638;DHT22;26604;53.596;10.042;2023-11-21T21:13:46;4.30;1.00
15638;DHT22;26604;53.596;10.042;2023-11-21T21:16:13;4.30;1.00
15638;DHT22;26604;53.596;10.042;2023-11-21T21:18:40;4.30;1.00
15638;DHT22;26604;53.596;10.042;2023-11-21T21:21:07;4.30;1.00
15638;DHT22;26604;53.596;10.042;2023-11-21T21:23:34;4.30;1.00